sensor_id;sensor_type;location;lat;lon;timestamp;pressure;altitude;pressure_sealevel;temperature;humidity
76551;BME280;65393;53.160;18.170;2023-03-11T00:00:41;98521.98;;;0.35;91.16
76551;BME280;65393;53.160;18.170;2023-03-11T00:03:23;98529.09;;;0.36;91.10
76551;BME280;65393;53.160;18.170;2023-03-11T00:05:51;98535.08;;;0.35;91.34
76551;BME280;65393;53.160;18.170;2023-03-11T00:08:22;98531.39;;;0.35;91.16
76551;BME280;65393;53.160;18.170;2023-03-11T00:10:58;98525.33;;;0.34;91.07
76551;BME280;65393;53.160;18.170;2023-03-11T00:13:27;98519.48;;;0.31;91.19
76551;BME280;65393;53.160;18.170;2023-03-11T00:15:55;98524.20;;;0.31;91.30
76551;BME280;65393;53.160;18.170;2023-03-11T00:18:24;98523.48;;;0.31;91.09
76551;BME280;65393;53.160;18.170;2023-03-11T00:20:53;98515.10;;;0.32;91.21
76551;BME280;65393;53.160;18.170;2023-03-11T00:23:21;98515.29;;;0.32;91.41
76551;BME280;65393;53.160;18.170;2023-03-11T00:25:47;98515.25;;;0.33;91.29
76551;BME280;65393;53.160;18.170;2023-03-11T00:28:15;98523.25;;;0.33;91.50
76551;BME280;65393;53.160;18.170;2023-03-11T00:30:44;98522.87;;;0.35;91.48
76551;BME280;65393;53.160;18.170;2023-03-11T00:33:14;98518.28;;;0.36;91.22
76551;BME280;65393;53.160;18.170;2023-03-11T00:35:41;98512.43;;;0.34;91.22
76551;BME280;65393;53.160;18.170;2023-03-11T00:38:12;98502.76;;;0.31;91.27
76551;BME280;65393;53.160;18.170;2023-03-11T00:40:41;98494.83;;;0.28;91.21
76551;BME280;65393;53.160;18.170;2023-03-11T00:43:08;98490.70;;;0.26;91.42
76551;BME280;65393;53.160;18.170;2023-03-11T00:45:36;98486.02;;;0.25;91.56
76551;BME280;65393;53.160;18.170;2023-03-11T00:48:04;98478.38;;;0.24;91.80
76551;BME280;65393;53.160;18.170;2023-03-11T00:50:34;98471.95;;;0.23;91.72
76551;BME280;65393;53.160;18.170;2023-03-11T00:53:02;98476.85;;;0.23;92.02
76551;BME280;65393;53.160;18.170;2023-03-11T00:55:31;98472.13;;;0.23;91.59
76551;BME280;65393;53.160;18.170;2023-03-11T00:58:02;98471.75;;;0.24;91.86
76551;BME280;65393;53.160;18.170;2023-03-11T01:00:36;98471.41;;;0.24;91.40
76551;BME280;65393;53.160;18.170;2023-03-11T01:03:03;98478.91;;;0.24;91.45
76551;BME280;65393;53.160;18.170;2023-03-11T01:05:31;98487.41;;;0.25;91.89
76551;BME280;65393;53.160;18.170;2023-03-11T01:07:59;98491.76;;;0.26;91.40
76551;BME280;65393;53.160;18.170;2023-03-11T01:10:28;98488.42;;;0.26;91.47
76551;BME280;65393;53.160;18.170;2023-03-11T01:12:55;98490.98;;;0.29;91.49
76551;BME280;65393;53.160;18.170;2023-03-11T01:15:29;98492.50;;;0.30;91.55
76551;BME280;65393;53.160;18.170;2023-03-11T01:17:59;98493.66;;;0.31;91.13
76551;BME280;65393;53.160;18.170;2023-03-11T01:20:27;98492.93;;;0.32;91.62
76551;BME280;65393;53.160;18.170;2023-03-11T01:22:55;98496.19;;;0.34;91.72
76551;BME280;65393;53.160;18.170;2023-03-11T01:25:23;98498.23;;;0.36;91.15
76551;BME280;65393;53.160;18.170;2023-03-11T01:27:50;98490.15;;;0.38;91.43
76551;BME280;65393;53.160;18.170;2023-03-11T01:30:22;98487.59;;;0.36;91.43
76551;BME280;65393;53.160;18.170;2023-03-11T01:32:51;98485.19;;;0.34;91.18
76551;BME280;65393;53.160;18.170;2023-03-11T01:35:20;98485.70;;;0.35;91.17
76551;BME280;65393;53.160;18.170;2023-03-11T01:37:48;98490.60;;;0.35;90.97
76551;BME280;65393;53.160;18.170;2023-03-11T01:40:23;98492.38;;;0.33;91.26
76551;BME280;65393;53.160;18.170;2023-03-11T01:42:51;98489.08;;;0.33;91.41
76551;BME280;65393;53.160;18.170;2023-03-11T01:48:16;98495.02;;;0.32;91.40
76551;BME280;65393;53.160;18.170;2023-03-11T01:50:48;98501.31;;;0.32;91.11
76551;BME280;65393;53.160;18.170;2023-03-11T01:53:18;98505.69;;;0.31;90.93
76551;BME280;65393;53.160;18.170;2023-03-11T01:55:47;98500.48;;;0.31;90.98
76551;BME280;65393;53.160;18.170;2023-03-11T01:58:17;98503.11;;;0.31;91.36
76551;BME280;65393;53.160;18.170;2023-03-11T02:00:46;98503.45;;;0.31;91.30
76551;BME280;65393;53.160;18.170;2023-03-11T02:03:16;98499.93;;;0.31;91.14
76551;BME280;65393;53.160;18.170;2023-03-11T02:05:45;98497.13;;;0.32;90.97
76551;BME280;65393;53.160;18.170;2023-03-11T02:08:13;98502.58;;;0.31;90.93
76551;BME280;65393;53.160;18.170;2023-03-11T02:10:40;98500.30;;;0.31;91.05
76551;BME280;65393;53.160;18.170;2023-03-11T02:13:08;98500.41;;;0.33;90.86
76551;BME280;65393;53.160;18.170;2023-03-11T02:15:36;98494.05;;;0.30;90.99
76551;BME280;65393;53.160;18.170;2023-03-11T02:18:05;98491.52;;;0.28;91.08
76551;BME280;65393;53.160;18.170;2023-03-11T02:20:51;98489.10;;;0.27;91.10
76551;BME280;65393;53.160;18.170;2023-03-11T02:23:29;98487.73;;;0.26;91.23
76551;BME280;65393;53.160;18.170;2023-03-11T02:26:06;98484.33;;;0.23;91.14
76551;BME280;65393;53.160;18.170;2023-03-11T02:28:38;98484.19;;;0.22;91.31
76551;BME280;65393;53.160;18.170;2023-03-11T02:31:06;98486.48;;;0.21;90.88
76551;BME280;65393;53.160;18.170;2023-03-11T02:33:35;98493.80;;;0.22;91.39
76551;BME280;65393;53.160;18.170;2023-03-11T02:36:03;98495.67;;;0.23;91.33
76551;BME280;65393;53.160;18.170;2023-03-11T02:38:30;98498.80;;;0.24;91.17
76551;BME280;65393;53.160;18.170;2023-03-11T02:40:59;98501.70;;;0.26;91.47
76551;BME280;65393;53.160;18.170;2023-03-11T02:43:39;98501.83;;;0.28;91.33
76551;BME280;65393;53.160;18.170;2023-03-11T02:46:10;98500.64;;;0.26;91.45
76551;BME280;65393;53.160;18.170;2023-03-11T02:48:38;98503.11;;;0.25;91.54
76551;BME280;65393;53.160;18.170;2023-03-11T02:51:05;98506.77;;;0.26;91.42
76551;BME280;65393;53.160;18.170;2023-03-11T02:53:36;98509.23;;;0.25;91.48
76551;BME280;65393;53.160;18.170;2023-03-11T02:56:05;98509.02;;;0.26;91.42
76551;BME280;65393;53.160;18.170;2023-03-11T02:58:33;98519.18;;;0.24;91.64
76551;BME280;65393;53.160;18.170;2023-03-11T03:01:00;98519.15;;;0.25;91.53
76551;BME280;65393;53.160;18.170;2023-03-11T03:03:27;98524.89;;;0.26;91.51
76551;BME280;65393;53.160;18.170;2023-03-11T03:05:54;98529.77;;;0.26;91.53
76551;BME280;65393;53.160;18.170;2023-03-11T03:08:21;98535.15;;;0.27;91.48
76551;BME280;65393;53.160;18.170;2023-03-11T03:10:48;98534.96;;;0.28;91.67
76551;BME280;65393;53.160;18.170;2023-03-11T03:13:15;98536.02;;;0.28;91.42
76551;BME280;65393;53.160;18.170;2023-03-11T03:15:41;98539.14;;;0.29;91.47
76551;BME280;65393;53.160;18.170;2023-03-11T03:18:08;98542.36;;;0.31;91.39
76551;BME280;65393;53.160;18.170;2023-03-11T03:20:35;98542.67;;;0.31;91.50
76551;BME280;65393;53.160;18.170;2023-03-11T03:23:02;98545.42;;;0.33;91.53
76551;BME280;65393;53.160;18.170;2023-03-11T03:25:30;98548.72;;;0.34;91.35
76551;BME280;65393;53.160;18.170;2023-03-11T03:27:58;98552.85;;;0.36;91.72
76551;BME280;65393;53.160;18.170;2023-03-11T03:30:25;98552.14;;;0.36;91.35
76551;BME280;65393;53.160;18.170;2023-03-11T03:32:55;98560.23;;;0.34;91.36
76551;BME280;65393;53.160;18.170;2023-03-11T03:35:22;98560.64;;;0.32;91.09
76551;BME280;65393;53.160;18.170;2023-03-11T03:37:56;98564.75;;;0.30;91.43
76551;BME280;65393;53.160;18.170;2023-03-11T03:40:23;98565.27;;;0.30;91.16
76551;BME280;65393;53.160;18.170;2023-03-11T03:42:50;98568.66;;;0.32;91.43
76551;BME280;65393;53.160;18.170;2023-03-11T03:45:17;98575.91;;;0.30;91.31
76551;BME280;65393;53.160;18.170;2023-03-11T03:47:44;98574.20;;;0.28;91.19
76551;BME280;65393;53.160;18.170;2023-03-11T03:50:11;98578.23;;;0.28;91.31
76551;BME280;65393;53.160;18.170;2023-03-11T03:52:40;98578.55;;;0.29;91.54
76551;BME280;65393;53.160;18.170;2023-03-11T03:55:07;98586.09;;;0.28;91.59
76551;BME280;65393;53.160;18.170;2023-03-11T03:57:34;98588.86;;;0.28;91.34
76551;BME280;65393;53.160;18.170;2023-03-11T04:00:01;98592.08;;;0.25;91.66
76551;BME280;65393;53.160;18.170;2023-03-11T04:02:30;98596.77;;;0.26;91.48
76551;BME280;65393;53.160;18.170;2023-03-11T04:04:57;98594.05;;;0.24;91.54
76551;BME280;65393;53.160;18.170;2023-03-11T04:07:24;98595.79;;;0.24;91.46
76551;BME280;65393;53.160;18.170;2023-03-11T04:09:50;98596.14;;;0.23;91.32
76551;BME280;65393;53.160;18.170;2023-03-11T04:12:17;98600.00;;;0.23;91.40
76551;BME280;65393;53.160;18.170;2023-03-11T04:14:44;98600.69;;;0.23;91.66
76551;BME280;65393;53.160;18.170;2023-03-11T04:17:12;98604.17;;;0.24;91.76
76551;BME280;65393;53.160;18.170;2023-03-11T04:19:40;98606.41;;;0.24;91.17
76551;BME280;65393;53.160;18.170;2023-03-11T04:22:07;98609.73;;;0.24;91.67
76551;BME280;65393;53.160;18.170;2023-03-11T04:24:34;98614.26;;;0.25;91.26
76551;BME280;65393;53.160;18.170;2023-03-11T04:27:01;98617.77;;;0.24;91.67
76551;BME280;65393;53.160;18.170;2023-03-11T04:29:28;98617.77;;;0.24;91.96
76551;BME280;65393;53.160;18.170;2023-03-11T04:31:55;98617.23;;;0.24;91.62
76551;BME280;65393;53.160;18.170;2023-03-11T04:34:22;98617.70;;;0.26;91.36
76551;BME280;65393;53.160;18.170;2023-03-11T04:36:53;98622.41;;;0.26;91.44
76551;BME280;65393;53.160;18.170;2023-03-11T04:39:20;98624.14;;;0.27;91.54
76551;BME280;65393;53.160;18.170;2023-03-11T04:41:47;98628.25;;;0.24;91.41
76551;BME280;65393;53.160;18.170;2023-03-11T04:44:16;98628.40;;;0.19;91.63
76551;BME280;65393;53.160;18.170;2023-03-11T04:46:43;98632.41;;;0.19;91.44
76551;BME280;65393;53.160;18.170;2023-03-11T04:49:10;98639.52;;;0.14;91.19
76551;BME280;65393;53.160;18.170;2023-03-11T04:51:37;98640.39;;;0.09;91.10
76551;BME280;65393;53.160;18.170;2023-03-11T04:54:05;98643.89;;;0.02;91.28
76551;BME280;65393;53.160;18.170;2023-03-11T04:56:33;98649.94;;;-0.02;91.14
76551;BME280;65393;53.160;18.170;2023-03-11T04:59:00;98650.36;;;-0.05;91.36
76551;BME280;65393;53.160;18.170;2023-03-11T05:01:28;98654.05;;;-0.07;91.37
76551;BME280;65393;53.160;18.170;2023-03-11T05:03:55;98655.70;;;-0.09;91.52
76551;BME280;65393;53.160;18.170;2023-03-11T05:06:22;98659.60;;;-0.11;91.44
76551;BME280;65393;53.160;18.170;2023-03-11T05:08:49;98666.10;;;-0.13;91.69
76551;BME280;65393;53.160;18.170;2023-03-11T05:11:15;98668.91;;;-0.14;91.46
76551;BME280;65393;53.160;18.170;2023-03-11T05:13:43;98674.66;;;-0.14;91.69
76551;BME280;65393;53.160;18.170;2023-03-11T05:16:11;98672.61;;;-0.15;91.95
76551;BME280;65393;53.160;18.170;2023-03-11T05:18:38;98672.45;;;-0.15;92.10
76551;BME280;65393;53.160;18.170;2023-03-11T05:21:05;98676.94;;;-0.14;91.90
76551;BME280;65393;53.160;18.170;2023-03-11T05:23:33;98676.89;;;-0.12;91.85
76551;BME280;65393;53.160;18.170;2023-03-11T05:26:00;98680.70;;;-0.11;91.88
76551;BME280;65393;53.160;18.170;2023-03-11T05:28:28;98684.86;;;-0.11;91.60
76551;BME280;65393;53.160;18.170;2023-03-11T05:30:55;98690.29;;;-0.11;91.60
76551;BME280;65393;53.160;18.170;2023-03-11T05:33:22;98698.05;;;-0.09;91.65
76551;BME280;65393;53.160;18.170;2023-03-11T05:35:49;98703.29;;;-0.09;91.64
76551;BME280;65393;53.160;18.170;2023-03-11T05:38:18;98713.38;;;-0.08;91.88
76551;BME280;65393;53.160;18.170;2023-03-11T05:40:45;98719.27;;;-0.07;91.59
76551;BME280;65393;53.160;18.170;2023-03-11T05:43:12;98715.52;;;-0.10;91.72
76551;BME280;65393;53.160;18.170;2023-03-11T05:45:40;98723.95;;;-0.11;91.69
76551;BME280;65393;53.160;18.170;2023-03-11T05:48:07;98730.35;;;-0.10;91.65
76551;BME280;65393;53.160;18.170;2023-03-11T05:50:35;98733.48;;;-0.10;91.83
76551;BME280;65393;53.160;18.170;2023-03-11T05:53:02;98737.06;;;-0.07;91.47
76551;BME280;65393;53.160;18.170;2023-03-11T05:55:30;98741.73;;;-0.06;91.46
76551;BME280;65393;53.160;18.170;2023-03-11T05:57:57;98746.11;;;-0.06;91.38
76551;BME280;65393;53.160;18.170;2023-03-11T06:00:24;98750.43;;;-0.04;91.30
76551;BME280;65393;53.160;18.170;2023-03-11T06:02:51;98761.05;;;-0.04;91.46
76551;BME280;65393;53.160;18.170;2023-03-11T06:05:18;98764.55;;;-0.04;91.40
76551;BME280;65393;53.160;18.170;2023-03-11T06:07:46;98771.66;;;-0.03;91.53
76551;BME280;65393;53.160;18.170;2023-03-11T06:10:13;98775.31;;;-0.02;91.36
76551;BME280;65393;53.160;18.170;2023-03-11T06:12:40;98786.29;;;-0.02;91.24
76551;BME280;65393;53.160;18.170;2023-03-11T06:15:18;98796.98;;;0.03;91.40
76551;BME280;65393;53.160;18.170;2023-03-11T06:17:45;98802.55;;;0.04;91.03
76551;BME280;65393;53.160;18.170;2023-03-11T06:20:12;98813.19;;;0.03;90.88
76551;BME280;65393;53.160;18.170;2023-03-11T06:22:39;98823.27;;;0.05;90.78
76551;BME280;65393;53.160;18.170;2023-03-11T06:25:07;98834.05;;;0.06;90.67
76551;BME280;65393;53.160;18.170;2023-03-11T06:27:34;98840.30;;;0.07;90.28
76551;BME280;65393;53.160;18.170;2023-03-11T06:30:01;98844.88;;;0.05;90.39
76551;BME280;65393;53.160;18.170;2023-03-11T06:32:30;98853.59;;;0.06;90.19
76551;BME280;65393;53.160;18.170;2023-03-11T06:34:57;98859.69;;;0.06;90.00
76551;BME280;65393;53.160;18.170;2023-03-11T06:37:24;98872.93;;;0.07;89.82
76551;BME280;65393;53.160;18.170;2023-03-11T06:39:52;98876.47;;;0.05;89.95
76551;BME280;65393;53.160;18.170;2023-03-11T06:42:20;98875.62;;;0.04;89.69
76551;BME280;65393;53.160;18.170;2023-03-11T06:44:49;98888.86;;;0.04;89.60
76551;BME280;65393;53.160;18.170;2023-03-11T06:47:16;98896.52;;;0.04;89.62
76551;BME280;65393;53.160;18.170;2023-03-11T06:49:43;98906.52;;;0.02;89.28
76551;BME280;65393;53.160;18.170;2023-03-11T06:52:10;98909.95;;;0.05;89.23
76551;BME280;65393;53.160;18.170;2023-03-11T06:54:37;98914.52;;;0.04;89.15
76551;BME280;65393;53.160;18.170;2023-03-11T06:57:08;98922.20;;;0.03;89.19
76551;BME280;65393;53.160;18.170;2023-03-11T06:59:36;98924.56;;;0.06;89.14
76551;BME280;65393;53.160;18.170;2023-03-11T07:02:04;98930.21;;;0.11;89.02
76551;BME280;65393;53.160;18.170;2023-03-11T07:04:32;98939.59;;;0.12;88.70
76551;BME280;65393;53.160;18.170;2023-03-11T07:06:59;98948.94;;;0.15;88.77
76551;BME280;65393;53.160;18.170;2023-03-11T07:09:26;98958.58;;;0.20;88.28
76551;BME280;65393;53.160;18.170;2023-03-11T07:11:54;98971.02;;;0.25;87.70
76551;BME280;65393;53.160;18.170;2023-03-11T07:14:26;98980.48;;;0.23;87.50
76551;BME280;65393;53.160;18.170;2023-03-11T07:16:55;98983.53;;;0.20;87.59
76551;BME280;65393;53.160;18.170;2023-03-11T07:19:27;98998.42;;;0.24;87.44
76551;BME280;65393;53.160;18.170;2023-03-11T07:21:53;99008.05;;;0.23;86.97
76551;BME280;65393;53.160;18.170;2023-03-11T07:24:20;99008.42;;;0.22;87.13
76551;BME280;65393;53.160;18.170;2023-03-11T07:26:47;99020.29;;;0.15;87.40
76551;BME280;65393;53.160;18.170;2023-03-11T07:29:14;99023.30;;;0.12;87.87
76551;BME280;65393;53.160;18.170;2023-03-11T07:31:40;99025.96;;;0.11;87.58
76551;BME280;65393;53.160;18.170;2023-03-11T07:34:10;99034.60;;;0.08;87.79
76551;BME280;65393;53.160;18.170;2023-03-11T07:36:39;99037.71;;;0.09;87.95
76551;BME280;65393;53.160;18.170;2023-03-11T07:39:12;99044.55;;;0.07;88.08
76551;BME280;65393;53.160;18.170;2023-03-11T07:41:39;99049.35;;;0.11;87.85
76551;BME280;65393;53.160;18.170;2023-03-11T07:44:06;99058.35;;;0.13;86.96
76551;BME280;65393;53.160;18.170;2023-03-11T07:46:33;99065.05;;;0.11;87.01
76551;BME280;65393;53.160;18.170;2023-03-11T07:49:00;99067.70;;;0.09;87.32
76551;BME280;65393;53.160;18.170;2023-03-11T07:51:31;99079.14;;;0.04;87.02
76551;BME280;65393;53.160;18.170;2023-03-11T07:53:59;99085.29;;;0.02;87.28
76551;BME280;65393;53.160;18.170;2023-03-11T07:56:29;99095.30;;;-0.02;87.56
76551;BME280;65393;53.160;18.170;2023-03-11T07:58:58;99100.86;;;-0.00;87.17
76551;BME280;65393;53.160;18.170;2023-03-11T08:01:27;99100.80;;;-0.06;87.17
76551;BME280;65393;53.160;18.170;2023-03-11T08:03:56;99110.31;;;-0.10;87.16
76551;BME280;65393;53.160;18.170;2023-03-11T08:06:27;99121.44;;;-0.18;87.33
76551;BME280;65393;53.160;18.170;2023-03-11T08:08:58;99116.91;;;-0.18;87.56
76551;BME280;65393;53.160;18.170;2023-03-11T08:11:26;99130.05;;;-0.12;86.88
76551;BME280;65393;53.160;18.170;2023-03-11T08:13:54;99135.41;;;-0.10;86.57
76551;BME280;65393;53.160;18.170;2023-03-11T08:16:21;99140.43;;;-0.08;85.83
76551;BME280;65393;53.160;18.170;2023-03-11T08:18:50;99149.23;;;-0.12;86.25
76551;BME280;65393;53.160;18.170;2023-03-11T08:21:20;99160.95;;;-0.13;86.41
76551;BME280;65393;53.160;18.170;2023-03-11T08:23:48;99168.56;;;-0.11;86.45
76551;BME280;65393;53.160;18.170;2023-03-11T08:26:18;99174.54;;;-0.13;86.85
76551;BME280;65393;53.160;18.170;2023-03-11T08:28:46;99183.60;;;-0.12;87.11
76551;BME280;65393;53.160;18.170;2023-03-11T08:31:16;99183.89;;;-0.10;86.77
76551;BME280;65393;53.160;18.170;2023-03-11T08:33:44;99195.75;;;-0.09;85.97
76551;BME280;65393;53.160;18.170;2023-03-11T08:36:12;99209.02;;;-0.11;85.49
76551;BME280;65393;53.160;18.170;2023-03-11T08:38:38;99208.57;;;-0.14;86.05
76551;BME280;65393;53.160;18.170;2023-03-11T08:41:05;99209.79;;;-0.14;85.62
76551;BME280;65393;53.160;18.170;2023-03-11T08:43:33;99208.02;;;-0.13;85.90
76551;BME280;65393;53.160;18.170;2023-03-11T08:46:01;99213.30;;;-0.16;85.80
76551;BME280;65393;53.160;18.170;2023-03-11T08:48:29;99219.23;;;-0.16;86.31
76551;BME280;65393;53.160;18.170;2023-03-11T08:50:56;99218.38;;;-0.17;86.30
76551;BME280;65393;53.160;18.170;2023-03-11T08:53:23;99227.05;;;-0.14;86.83
76551;BME280;65393;53.160;18.170;2023-03-11T08:55:51;99237.45;;;-0.10;85.82
76551;BME280;65393;53.160;18.170;2023-03-11T08:58:19;99236.20;;;-0.10;85.10
76551;BME280;65393;53.160;18.170;2023-03-11T09:00:46;99249.02;;;-0.14;85.30
76551;BME280;65393;53.160;18.170;2023-03-11T09:03:13;99256.49;;;-0.12;85.17
76551;BME280;65393;53.160;18.170;2023-03-11T09:05:39;99269.15;;;-0.09;84.34
76551;BME280;65393;53.160;18.170;2023-03-11T09:08:06;99273.39;;;-0.02;83.79
76551;BME280;65393;53.160;18.170;2023-03-11T09:10:33;99273.20;;;-0.01;84.16
76551;BME280;65393;53.160;18.170;2023-03-11T09:13:00;99282.98;;;-0.02;84.49
76551;BME280;65393;53.160;18.170;2023-03-11T09:15:27;99295.89;;;-0.02;84.85
76551;BME280;65393;53.160;18.170;2023-03-11T09:17:54;99308.09;;;-0.02;84.85
76551;BME280;65393;53.160;18.170;2023-03-11T09:20:21;99311.83;;;-0.07;85.16
76551;BME280;65393;53.160;18.170;2023-03-11T09:22:48;99318.63;;;-0.06;85.26
76551;BME280;65393;53.160;18.170;2023-03-11T09:25:15;99322.16;;;-0.09;84.97
76551;BME280;65393;53.160;18.170;2023-03-11T09:27:42;99327.14;;;-0.13;84.89
76551;BME280;65393;53.160;18.170;2023-03-11T09:30:09;99332.34;;;-0.12;85.19
76551;BME280;65393;53.160;18.170;2023-03-11T09:32:36;99334.46;;;-0.04;84.39
76551;BME280;65393;53.160;18.170;2023-03-11T09:35:04;99347.02;;;-0.03;83.85
76551;BME280;65393;53.160;18.170;2023-03-11T09:37:30;99352.42;;;-0.03;83.59
76551;BME280;65393;53.160;18.170;2023-03-11T09:39:57;99359.38;;;0.08;82.46
76551;BME280;65393;53.160;18.170;2023-03-11T09:45:15;99374.56;;;0.08;82.07
76551;BME280;65393;53.160;18.170;2023-03-11T09:48:19;99384.76;;;0.13;81.49
76551;BME280;65393;53.160;18.170;2023-03-11T09:51:01;99387.29;;;0.08;81.74
76551;BME280;65393;53.160;18.170;2023-03-11T09:53:40;99391.55;;;0.13;81.20
76551;BME280;65393;53.160;18.170;2023-03-11T09:56:12;99391.92;;;0.12;81.93
76551;BME280;65393;53.160;18.170;2023-03-11T09:58:49;99406.28;;;0.10;82.44
76551;BME280;65393;53.160;18.170;2023-03-11T10:01:23;99420.66;;;0.15;81.54
76551;BME280;65393;53.160;18.170;2023-03-11T10:04:02;99428.16;;;0.15;81.28
76551;BME280;65393;53.160;18.170;2023-03-11T10:06:30;99431.05;;;0.20;80.74
76551;BME280;65393;53.160;18.170;2023-03-11T10:09:19;99432.27;;;0.19;80.43
76551;BME280;65393;53.160;18.170;2023-03-11T10:25:20;99462.80;;;0.79;80.90
76551;BME280;65393;53.160;18.170;2023-03-11T10:27:51;99469.39;;;0.91;79.26
76551;BME280;65393;53.160;18.170;2023-03-11T10:30:35;99473.45;;;0.98;79.07
76551;BME280;65393;53.160;18.170;2023-03-11T10:35:40;99491.02;;;0.84;79.12
76551;BME280;65393;53.160;18.170;2023-03-11T10:38:18;99493.21;;;0.79;79.77
76551;BME280;65393;53.160;18.170;2023-03-11T10:40:50;99496.77;;;0.74;79.54
76551;BME280;65393;53.160;18.170;2023-03-11T10:43:27;99511.05;;;0.76;78.78
76551;BME280;65393;53.160;18.170;2023-03-11T10:45:57;99507.38;;;0.77;78.81
76551;BME280;65393;53.160;18.170;2023-03-11T10:48:24;99513.28;;;0.88;78.49
76551;BME280;65393;53.160;18.170;2023-03-11T10:51:02;99513.93;;;0.91;77.70
76551;BME280;65393;53.160;18.170;2023-03-11T10:53:30;99516.59;;;0.90;78.45
76551;BME280;65393;53.160;18.170;2023-03-11T10:55:58;99521.42;;;0.83;78.71
76551;BME280;65393;53.160;18.170;2023-03-11T10:58:28;99523.23;;;0.80;78.95
76551;BME280;65393;53.160;18.170;2023-03-11T11:01:16;99530.01;;;0.81;78.96
76551;BME280;65393;53.160;18.170;2023-03-11T11:03:46;99530.61;;;0.76;79.05
76551;BME280;65393;53.160;18.170;2023-03-11T11:06:33;99536.50;;;0.80;78.18
76551;BME280;65393;53.160;18.170;2023-03-11T11:11:32;99540.92;;;0.87;77.48
76551;BME280;65393;53.160;18.170;2023-03-11T11:14:04;99540.64;;;0.82;77.82
76551;BME280;65393;53.160;18.170;2023-03-11T11:16:33;99549.41;;;0.81;77.22
76551;BME280;65393;53.160;18.170;2023-03-11T11:19:04;99545.31;;;0.74;77.81
76551;BME280;65393;53.160;18.170;2023-03-11T11:21:39;99550.61;;;0.71;78.34
76551;BME280;65393;53.160;18.170;2023-03-11T11:24:13;99559.06;;;0.67;78.38
76551;BME280;65393;53.160;18.170;2023-03-11T11:26:41;99571.36;;;0.62;78.50
76551;BME280;65393;53.160;18.170;2023-03-11T11:31:37;99570.71;;;0.80;77.26
76551;BME280;65393;53.160;18.170;2023-03-11T11:34:26;99583.27;;;0.91;77.16
76551;BME280;65393;53.160;18.170;2023-03-11T11:36:53;99584.16;;;1.01;77.18
76551;BME280;65393;53.160;18.170;2023-03-11T11:39:25;99585.41;;;1.09;76.84
76551;BME280;65393;53.160;18.170;2023-03-11T11:41:54;99592.95;;;1.08;76.78
76551;BME280;65393;53.160;18.170;2023-03-11T11:44:26;99592.27;;;1.06;77.30
76551;BME280;65393;53.160;18.170;2023-03-11T11:47:23;99599.93;;;1.08;77.77
76551;BME280;65393;53.160;18.170;2023-03-11T11:49:55;99599.44;;;1.17;77.73
76551;BME280;65393;53.160;18.170;2023-03-11T11:52:26;99612.56;;;1.25;77.63
76551;BME280;65393;53.160;18.170;2023-03-11T11:54:59;99610.98;;;1.34;77.21
76551;BME280;65393;53.160;18.170;2023-03-11T11:57:28;99619.61;;;1.41;76.87
76551;BME280;65393;53.160;18.170;2023-03-11T11:59:55;99621.27;;;1.45;76.36
76551;BME280;65393;53.160;18.170;2023-03-11T12:02:41;99624.98;;;1.42;75.28
76551;BME280;65393;53.160;18.170;2023-03-11T12:05:21;99631.27;;;1.44;75.46
76551;BME280;65393;53.160;18.170;2023-03-11T12:16:04;99645.71;;;1.18;76.23
76551;BME280;65393;53.160;18.170;2023-03-11T12:26:45;99670.95;;;1.04;73.97
76551;BME280;65393;53.160;18.170;2023-03-11T12:31:54;99683.27;;;0.99;72.82
76551;BME280;65393;53.160;18.170;2023-03-11T12:34:22;99693.88;;;1.01;72.10
76551;BME280;65393;53.160;18.170;2023-03-11T12:36:54;99687.39;;;1.02;72.06
76551;BME280;65393;53.160;18.170;2023-03-11T12:39:27;99696.95;;;1.05;71.90
76551;BME280;65393;53.160;18.170;2023-03-11T12:42:37;99694.92;;;1.01;72.80
76551;BME280;65393;53.160;18.170;2023-03-11T12:50:54;99707.72;;;1.20;72.49
76551;BME280;65393;53.160;18.170;2023-03-11T13:07:12;99750.92;;;1.40;71.89
76551;BME280;65393;53.160;18.170;2023-03-11T13:10:02;99760.23;;;1.37;71.36
76551;BME280;65393;53.160;18.170;2023-03-11T13:15:32;99770.81;;;1.42;70.48
76551;BME280;65393;53.160;18.170;2023-03-11T13:33:51;99805.23;;;1.65;70.17
76551;BME280;65393;53.160;18.170;2023-03-11T13:41:34;99822.89;;;1.65;68.76
76551;BME280;65393;53.160;18.170;2023-03-11T13:44:24;99825.19;;;1.64;68.27
76551;BME280;65393;53.160;18.170;2023-03-11T13:47:01;99841.79;;;1.65;68.01
76551;BME280;65393;53.160;18.170;2023-03-11T13:49:34;99848.55;;;1.58;68.76
76551;BME280;65393;53.160;18.170;2023-03-11T13:52:07;99846.59;;;1.49;69.50
76551;BME280;65393;53.160;18.170;2023-03-11T13:57:19;99854.37;;;1.55;68.19
76551;BME280;65393;53.160;18.170;2023-03-11T13:59:52;99854.84;;;1.58;67.29
76551;BME280;65393;53.160;18.170;2023-03-11T14:02:26;99862.41;;;1.55;68.13
76551;BME280;65393;53.160;18.170;2023-03-11T14:05:04;99864.58;;;1.51;67.87
76551;BME280;65393;53.160;18.170;2023-03-11T14:07:33;99874.48;;;1.56;68.11
76551;BME280;65393;53.160;18.170;2023-03-11T14:10:23;99873.15;;;1.63;68.16
76551;BME280;65393;53.160;18.170;2023-03-11T14:13:03;99878.20;;;1.63;68.55
76551;BME280;65393;53.160;18.170;2023-03-11T14:15:38;99882.05;;;1.64;68.96
76551;BME280;65393;53.160;18.170;2023-03-11T14:20:53;99895.92;;;1.60;68.88
76551;BME280;65393;53.160;18.170;2023-03-11T14:23:20;99900.55;;;1.55;68.95
76551;BME280;65393;53.160;18.170;2023-03-11T14:25:57;99907.57;;;1.53;69.08
76551;BME280;65393;53.160;18.170;2023-03-11T14:28:25;99915.30;;;1.61;69.48
76551;BME280;65393;53.160;18.170;2023-03-11T14:30:58;99915.05;;;1.66;69.40
76551;BME280;65393;53.160;18.170;2023-03-11T14:33:25;99926.07;;;1.68;69.21
76551;BME280;65393;53.160;18.170;2023-03-11T14:35:54;99929.33;;;1.72;68.64
76551;BME280;65393;53.160;18.170;2023-03-11T14:38:24;99921.55;;;1.65;68.54
76551;BME280;65393;53.160;18.170;2023-03-11T14:40:59;99925.09;;;1.63;68.40
76551;BME280;65393;53.160;18.170;2023-03-11T14:43:33;99926.80;;;1.64;67.51
76551;BME280;65393;53.160;18.170;2023-03-11T14:46:03;99932.58;;;1.65;66.16